Airfield :
LOGIN :

Register | Disclaimer

   EN    FR    IT 

 










Legend :    VFR   Marginal VFR   IFR   Intensive IFR   Very Intensive IFR
Visi :
Ceiling :
>= 8 km
>= 3000ft
5 to 8 km
1000 to 3000 ft
1500m to 5 km
500 to 1000 ft
800 to 1500m
200 to 500 ft
< 800m
< 200 ft
Symbols :   Thunderstorms  Fog  Heavy snow  Heavy precipitations  Wind > 20 kt
SIGMETs :     Misc.  Thunderstorms  Icing  Turbulence  Mountain Waves  Volcanic Ashes







- Airport Elevation : 17 ft
- IATA code : GRQ


EHGG - Groningen Eelde

CURRENT METAR :
  • 191255Z AUTO 22011KT 180V250 9999 OVC026 22/15 Q1018 NOSIG

EXPIRED METARs :
  • 191225Z AUTO 22014KT 9999 OVC027 21/15 Q1018 NOSIG
  • 191155Z AUTO 21014KT 180V240 9999 OVC028 21/14 Q1018 NOSIG
  • 191125Z AUTO 21011KT 160V240 9999 FEW028 OVC031 21/14 Q1018 NOSIG
  • 191055Z AUTO 20011KT 170V230 9999 BKN027 OVC030 21/14 Q1018 NOSIG
  • 191025Z AUTO 22013KT 170V250 9999 OVC031 21/14 Q1018 NOSIG

TAF TAF EHGG
Valid from the 19 at 12:00 until the 20 at 18:00 UTC


191045Z 1912/2018 22012KT 9999 SCT020 BKN030
PROB30
TEMPO 1912/1914 6000 -DZ BKN012
PROB30
TEMPO 1921/2003 4500 -DZ SCT008 BKN012
BECMG 2003/2005 28007KT 6000 BKN012
PROB40 2003/2008 4500 BR -DZ BKN008
BECMG 2009/2012 9999 BKN020
No reported NOTAMs for that airfield.



MET'MAP, your aeronautical weather chart ! - Copyright ORBIFLY December 2007 - Disclaimer

ORBIFLY MET'MAP TEAM :

Programming & Development : Alexandra Zaïnal
Concept & Development : Baudouin d'Aumeries
Co-Development & Prog : Marc-Olivier Méhu
Technical & hardware support : Manuel Goepfert

Contact : metmap@orbifly.com




SOURCES & CREDITS :

   NOAA